Time;durP1;ratioP1;P1;durP2;ratioP2;P2;SDS_P1;SDS_P2;PMS_P1;PMS_P2;Temp;Humidity;BMP_temperature;BMP_pressure;BME280_temperature;BME280_humidity;BME280_pressure;Samples;Min_cycle;Max_cycle;Signal;HPM_P1;HPM_P2
2023/04/15 00:00:32;;;;;;;10.40;4.63;;;;;;;-143.84;62.29;45113.81;4970590;28;20889;-67
2023/04/15 00:03:00;;;;;;;16.40;4.97;;;;;;;-143.84;63.39;45098.56;4970726;28;20456;-67
2023/04/15 00:05:29;;;;;;;9.70;4.03;;;;;;;-143.84;64.05;45136.66;4970868;28;21139;-67
2023/04/15 00:07:57;;;;;;;9.80;4.40;;;;;;;-143.84;63.97;45104.28;4970917;28;20442;-67
2023/04/15 00:10:24;;;;;;;9.10;4.60;;;;;;;-143.84;64.29;45121.44;4970684;28;20442;-67
2023/04/15 00:12:52;;;;;;;8.23;3.90;;;;;;;-143.84;63.98;45127.13;4970718;28;20496;-67
2023/04/15 00:15:19;;;;;;;9.57;4.05;;;;;;;-143.84;64.29;45129.03;4970280;28;20492;-67
2023/04/15 00:17:50;;;;;;;13.60;3.60;;;;;;;-143.84;64.02;45102.38;4970435;28;20230;-67
2023/04/15 00:20:17;;;;;;;11.80;3.90;;;;;;;-143.84;63.91;45098.56;4970667;28;20520;-67
2023/04/15 00:22:44;;;;;;;5.72;3.78;;;;;;;-143.84;64.69;45142.38;4970676;28;20489;-67
2023/04/15 00:25:11;;;;;;;10.37;4.03;;;;;;;-143.84;64.17;45115.72;4970468;28;20257;-67
2023/04/15 00:27:39;;;;;;;11.05;4.03;;;;;;;-143.84;63.73;45102.38;4970277;28;20454;-67
2023/04/15 00:30:07;;;;;;;7.70;4.10;;;;;;;-143.84;63.59;45117.63;4970552;28;20312;-67
2023/04/15 00:32:35;;;;;;;8.60;3.60;;;;;;;-143.84;64.68;45129.03;4970400;28;20503;-68
2023/04/15 00:35:03;;;;;;;20.75;4.38;;;;;;;-143.84;65.39;45134.75;4970290;28;21091;-68
2023/04/15 00:37:31;;;;;;;9.70;4.00;;;;;;;-143.84;65.20;45129.03;4970417;28;20277;-67
2023/04/15 00:39:58;;;;;;;5.93;4.07;;;;;;;-143.84;64.85;45125.22;4970006;28;20453;-67
2023/04/15 00:42:26;;;;;;;7.30;3.43;;;;;;;-143.84;65.17;45119.53;4970370;28;20477;-67
2023/04/15 00:44:53;;;;;;;7.93;3.50;;;;;;;-143.84;65.50;45110.00;4970429;28;20450;-67
2023/04/15 00:47:21;;;;;;;10.47;3.57;;;;;;;-143.84;65.63;45127.13;4970208;28;20490;-67
2023/04/15 00:49:48;;;;;;;5.55;3.30;;;;;;;-143.84;65.62;45110.00;4970118;28;20441;-67
2023/04/15 00:52:17;;;;;;;19.50;4.23;;;;;;;-143.84;65.63;45108.09;4970437;28;20206;-67
2023/04/15 00:54:44;;;;;;;9.57;3.63;;;;;;;-143.84;64.84;45089.06;4970216;28;20484;-67
2023/04/15 00:57:12;;;;;;;4.00;3.70;;;;;;;-143.84;64.59;45108.09;4970154;28;21133;-67
2023/04/15 00:59:39;;;;;;;12.53;3.33;;;;;;;-143.84;63.25;45134.75;4970295;28;21361;-67
2023/04/15 01:02:06;;;;;;;17.83;3.47;;;;;;;-143.84;62.80;45125.22;4969668;28;20522;-67
2023/04/15 01:04:34;;;;;;;11.17;3.07;;;;;;;-143.84;62.64;45121.44;4970293;28;20509;-67
2023/04/15 01:07:01;;;;;;;11.10;3.37;;;;;;;-143.84;64.22;45121.44;4970060;28;20517;-67
2023/04/15 01:09:30;;;;;;;5.90;3.63;;;;;;;-143.84;64.17;45113.81;4970270;28;20489;-67
2023/04/15 01:11:57;;;;;;;8.53;3.53;;;;;;;-143.84;64.42;45106.19;4969955;28;20500;-67
2023/04/15 01:14:25;;;;;;;9.93;3.20;;;;;;;-143.84;65.08;45115.72;4970008;28;20477;-67
2023/04/15 01:16:53;;;;;;;5.90;3.13;;;;;;;-143.84;65.51;45111.91;4969721;28;21009;-68
2023/04/15 01:19:20;;;;;;;11.37;4.10;;;;;;;-143.84;65.80;45111.91;4970001;28;20450;-68
2023/04/15 01:21:47;;;;;;;8.23;3.90;;;;;;;-143.84;66.15;45108.09;4970027;28;21015;-68
2023/04/15 01:24:18;;;;;;;13.83;3.67;;;;;;;-143.84;64.66;45110.00;4969898;28;20454;-68
2023/04/15 01:26:49;;;;;;;4.33;3.53;;;;;;;-143.84;64.08;45150.00;4969733;28;20950;-68
2023/04/15 01:29:16;;;;;;;8.57;2.77;;;;;;;-143.84;63.92;45121.44;4970087;28;20449;-68
2023/04/15 01:31:51;;;;;;;14.30;3.07;;;;;;;-143.84;62.60;45125.22;4969977;28;20451;-68
2023/04/15 01:34:19;;;;;;;6.40;2.90;;;;;;;-143.84;62.03;45092.88;4969970;28;20494;-68
2023/04/15 01:36:47;;;;;;;10.57;3.17;;;;;;;-143.84;62.40;45110.00;4969854;28;21002;-67
2023/04/15 01:39:14;;;;;;;14.87;2.90;;;;;;;-143.84;60.37;45117.63;4969982;28;20445;-67
2023/04/15 01:41:41;;;;;;;15.33;3.33;;;;;;;-143.84;59.82;45125.22;4969622;28;20442;-67
2023/04/15 01:44:10;;;;;;;4.05;2.95;;;;;;;-143.84;60.25;45098.56;4969756;28;20556;-67
2023/04/15 01:46:37;;;;;;;4.63;3.07;;;;;;;-143.84;60.69;45140.47;4969822;28;20211;-67
2023/04/15 01:49:04;;;;;;;5.67;3.13;;;;;;;-143.84;59.92;45117.63;4969632;28;20440;-67
2023/04/15 01:51:31;;;;;;;10.83;3.30;;;;;;;-143.84;58.49;45115.72;4969685;28;20508;-67
2023/04/15 01:53:58;;;;;;;18.10;3.37;;;;;;;-143.84;58.93;45127.13;4969732;28;20445;-67
2023/04/15 01:56:25;;;;;;;10.00;4.00;;;;;;;-143.84;61.10;45115.72;4969506;28;20445;-67
2023/04/15 01:58:53;;;;;;;10.40;3.13;;;;;;;-143.84;62.22;45125.22;4969845;28;20437;-67
2023/04/15 02:01:21;;;;;;;12.30;4.33;;;;;;;-143.84;62.24;45136.66;4969708;28;20450;-67
2023/04/15 02:03:48;;;;;;;9.60;4.22;;;;;;;-143.84;62.66;45117.63;4969614;28;20457;-66
2023/04/15 02:06:17;;;;;;;10.30;3.10;;;;;;;-143.84;62.26;45104.28;4969447;28;20660;-67
2023/04/15 02:08:44;;;;;;;10.63;3.08;;;;;;;-143.84;62.80;45117.63;4969458;28;20445;-67
2023/04/15 02:11:11;;;;;;;7.33;3.20;;;;;;;-143.84;61.89;45111.91;4969377;28;20752;-67
2023/04/15 02:13:38;;;;;;;15.60;3.60;;;;;;;-143.84;61.41;45132.84;4971477;28;20449;-67
2023/04/15 02:16:16;;;;;;;11.10;4.00;;;;;;;-143.84;61.83;45125.22;4972854;28;20512;-67
2023/04/15 02:18:45;;;;;;;22.53;5.00;;;;;;;-143.84;62.29;45106.19;4973000;28;20430;-67
2023/04/15 02:21:12;;;;;;;11.30;3.73;;;;;;;-143.84;62.12;45098.56;4972947;28;20457;-67
2023/04/15 02:23:40;;;;;;;10.00;3.90;;;;;;;-143.84;62.13;45100.47;4972845;28;20449;-67
2023/04/15 02:26:07;;;;;;;8.40;4.00;;;;;;;-143.84;63.44;45119.53;4973203;28;20460;-67
2023/04/15 02:28:34;;;;;;;28.07;4.63;;;;;;;-143.84;63.31;45117.63;4972588;28;20500;-67
2023/04/15 02:31:05;;;;;;;12.10;5.43;;;;;;;-143.84;63.49;45111.91;4972744;28;20556;-67
2023/04/15 02:33:32;;;;;;;16.47;5.20;;;;;;;-143.84;63.47;45115.72;4972444;28;20960;-67
2023/04/15 02:36:01;;;;;;;12.23;4.20;;;;;;;-143.84;63.75;45111.91;4972391;28;20532;-67
2023/04/15 02:38:28;;;;;;;8.60;4.30;;;;;;;-143.84;64.17;45127.13;4972598;28;20956;-67
2023/04/15 02:40:56;;;;;;;17.23;4.73;;;;;;;-143.84;65.33;45106.19;4972394;28;20453;-67
2023/04/15 02:43:23;;;;;;;16.25;4.22;;;;;;;-143.84;65.71;45134.75;4972517;28;21216;-67
2023/04/15 02:45:50;;;;;;;11.47;4.73;;;;;;;-143.84;65.76;45102.38;4972726;28;20210;-67
2023/04/15 02:48:19;;;;;;;14.07;4.53;;;;;;;-143.84;65.25;45132.84;4972198;28;20943;-67
2023/04/15 02:50:46;;;;;;;17.37;5.10;;;;;;;-143.84;65.17;45113.81;4972108;28;20199;-67
2023/04/15 02:53:16;;;;;;;13.07;5.00;;;;;;;-143.84;65.28;45106.19;4972210;28;20928;-67
2023/04/15 02:55:43;;;;;;;16.00;5.37;;;;;;;-143.84;65.39;45129.03;4972008;28;20480;-67
2023/04/15 02:58:10;;;;;;;9.30;3.93;;;;;;;-143.84;65.76;45121.44;4971610;28;20473;-67
2023/04/15 03:00:37;;;;;;;19.97;5.23;;;;;;;-143.84;66.19;45100.47;4972206;28;20438;-67
2023/04/15 03:03:05;;;;;;;13.67;4.83;;;;;;;-143.84;66.21;45148.09;4972016;28;20528;-67
2023/04/15 03:05:33;;;;;;;11.60;4.25;;;;;;;-143.84;65.94;45140.47;4972387;28;20445;-67
2023/04/15 03:08:01;;;;;;;8.93;4.28;;;;;;;-143.84;65.19;45117.63;4972055;28;20658;-67
2023/04/15 03:10:30;;;;;;;23.80;5.07;;;;;;;-143.84;64.93;45148.09;4971913;28;20202;-67
2023/04/15 03:12:57;;;;;;;13.70;4.43;;;;;;;-143.84;64.83;45115.72;4972035;28;20473;-67
2023/04/15 03:15:24;;;;;;;9.03;4.50;;;;;;;-143.84;64.87;45121.44;4971623;28;20542;-67
2023/04/15 03:17:51;;;;;;;18.67;3.93;;;;;;;-143.84;65.02;45110.00;4971571;28;20616;-67
2023/04/15 03:20:19;;;;;;;12.50;5.73;;;;;;;-143.84;65.27;45102.38;4971753;28;20433;-67
2023/04/15 03:22:46;;;;;;;8.43;3.90;;;;;;;-143.84;65.85;45102.38;4971449;28;20457;-67
2023/04/15 03:25:13;;;;;;;25.40;8.93;;;;;;;-143.84;65.65;45117.63;4971423;28;20936;-68
2023/04/15 03:27:42;;;;;;;15.67;7.10;;;;;;;-143.84;64.89;45075.72;4971875;28;20445;-68
2023/04/15 03:30:10;;;;;;;17.37;5.00;;;;;;;-143.84;64.09;45140.47;4971719;28;20502;-67
2023/04/15 03:32:37;;;;;;;9.37;3.93;;;;;;;-143.84;62.87;45115.72;4971787;28;20438;-67
2023/04/15 03:35:04;;;;;;;10.50;3.97;;;;;;;-143.84;61.90;45117.63;4971935;28;21192;-67
2023/04/15 03:37:31;;;;;;;9.47;3.83;;;;;;;-143.84;60.13;45115.72;4971662;28;21195;-68
2023/04/15 03:39:58;;;;;;;6.73;2.60;;;;;;;-143.84;57.71;45129.03;4971366;28;20447;-67
2023/04/15 03:42:25;;;;;;;8.13;3.17;;;;;;;-143.84;58.11;45119.53;4971685;28;20447;-67
2023/04/15 03:44:54;;;;;;;6.38;2.90;;;;;;;-143.84;57.74;45125.22;4971379;28;20449;-67
2023/04/15 03:47:21;;;;;;;4.90;3.20;;;;;;;-143.84;58.08;45127.13;4971273;28;20207;-67
2023/04/15 03:49:48;;;;;;;8.43;3.40;;;;;;;-143.84;58.59;45117.63;4971493;28;20894;-67
2023/04/15 03:52:16;;;;;;;7.00;3.10;;;;;;;-143.84;58.85;45115.72;4971110;28;20504;-68
2023/04/15 03:54:43;;;;;;;6.57;2.87;;;;;;;-143.84;58.21;45098.56;4971114;28;20205;-67
2023/04/15 03:57:10;;;;;;;5.70;3.33;;;;;;;-143.84;58.76;45104.28;4971067;28;20978;-68
2023/04/15 03:59:37;;;;;;;13.50;3.97;;;;;;;-143.84;58.93;45125.22;4971168;28;20518;-68
2023/04/15 04:02:06;;;;;;;10.05;2.58;;;;;;;-143.84;60.18;45092.88;4971098;28;20449;-68
2023/04/15 04:04:33;;;;;;;6.60;4.00;;;;;;;-143.84;60.94;45172.84;4970843;28;20211;-68
2023/04/15 04:07:00;;;;;;;14.03;5.47;;;;;;;-143.84;63.72;45100.47;4970561;28;20511;-67
2023/04/15 04:09:28;;;;;;;10.85;5.00;;;;;;;-143.84;64.08;45104.28;4969839;28;20443;-67
2023/04/15 04:11:55;;;;;;;16.65;4.50;;;;;;;-143.84;63.75;45085.25;4969721;28;20204;-67
2023/04/15 04:14:28;;;;;;;13.87;5.27;;;;;;;-143.84;63.68;45098.56;4970405;28;20547;-68
2023/04/15 04:16:55;;;;;;;15.05;5.05;;;;;;;-143.84;63.62;45136.66;4970035;28;20506;-67
2023/04/15 04:19:24;;;;;;;18.08;5.45;;;;;;;-143.84;63.18;45127.13;4970050;28;20205;-68
2023/04/15 04:21:51;;;;;;;21.90;6.50;;;;;;;-143.84;62.03;45102.38;4970670;28;20306;-67
2023/04/15 04:24:18;;;;;;;10.18;3.45;;;;;;;-143.84;61.78;45094.78;4970517;28;20473;-67
2023/04/15 04:26:45;;;;;;;7.30;3.97;;;;;;;-143.84;60.45;45087.16;4970537;28;20703;-67
2023/04/15 04:29:13;;;;;;;20.30;4.90;;;;;;;-143.84;61.08;45127.13;4982846;28;20938;-67
2023/04/15 04:31:40;;;;;;;14.23;5.10;;;;;;;-143.84;62.94;45121.44;4990014;28;20441;-68
2023/04/15 04:34:07;;;;;;;13.23;4.30;;;;;;;-143.84;62.77;45111.91;4990172;28;20887;-67
2023/04/15 04:36:36;;;;;;;7.27;3.97;;;;;;;-143.84;63.69;45119.53;4989324;28;20485;-67
2023/04/15 04:39:03;;;;;;;10.70;4.90;;;;;;;-143.84;64.06;45111.91;4989616;28;20441;-67
2023/04/15 04:41:31;;;;;;;19.57;5.80;;;;;;;-143.84;64.45;45096.66;4989936;28;20946;-68
2023/04/15 04:43:58;;;;;;;20.90;4.63;;;;;;;-143.84;64.58;45123.34;4963029;28;20561;-67
2023/04/15 04:46:25;;;;;;;15.33;5.33;;;;;;;-143.84;64.56;45146.19;4951056;28;20195;-67
2023/04/15 04:48:52;;;;;;;21.13;5.40;;;;;;;-143.84;65.11;45094.78;4950903;28;20454;-67
2023/04/15 04:51:19;;;;;;;20.85;4.57;;;;;;;-143.84;65.62;45129.03;4951197;28;20443;-67
2023/04/15 04:53:48;;;;;;;13.13;5.43;;;;;;;-143.84;65.98;45144.28;4951425;28;20198;-67
2023/04/15 04:56:15;;;;;;;16.90;4.50;;;;;;;-143.84;66.11;45117.63;4950995;28;20550;-67
2023/04/15 04:58:42;;;;;;;13.23;4.73;;;;;;;-143.84;65.79;45117.63;4951143;28;20446;-67
2023/04/15 05:01:09;;;;;;;16.23;4.90;;;;;;;-143.84;65.87;45083.34;4951178;29;20440;-67
2023/04/15 05:03:36;;;;;;;25.27;5.60;;;;;;;-143.84;66.87;45094.78;4950968;28;20442;-67
2023/04/15 05:06:05;;;;;;;21.60;5.20;;;;;;;-143.84;68.06;45115.72;4951300;29;21198;-67
2023/04/15 05:08:32;;;;;;;14.67;5.20;;;;;;;-143.84;68.43;45111.91;4950936;28;20450;-67
2023/04/15 05:11:01;;;;;;;13.80;5.80;;;;;;;-143.84;69.41;45098.56;4950883;28;20941;-67
2023/04/15 05:13:28;;;;;;;25.43;5.67;;;;;;;-143.84;69.55;45096.66;4950871;28;21000;-67
2023/04/15 05:15:56;;;;;;;15.87;6.10;;;;;;;-143.84;69.40;45136.66;4950497;28;20497;-67
2023/04/15 05:18:23;;;;;;;14.50;4.93;;;;;;;-143.84;69.60;45117.63;4950512;28;20497;-67
2023/04/15 05:20:50;;;;;;;12.53;5.00;;;;;;;-143.84;69.95;45125.22;4950688;28;20442;-67
2023/04/15 05:23:17;;;;;;;13.20;5.13;;;;;;;-143.84;69.90;45106.19;4950799;28;20442;-67
2023/04/15 05:25:44;;;;;;;12.00;5.10;;;;;;;-143.84;70.59;45083.34;4950730;28;20823;-67
2023/04/15 05:28:13;;;;;;;12.07;5.07;;;;;;;-143.84;71.20;45102.38;4950717;28;20455;-67
2023/04/15 05:30:40;;;;;;;14.70;5.90;;;;;;;-143.84;70.30;45102.38;4950711;28;20497;-67
2023/04/15 05:33:07;;;;;;;26.63;6.97;;;;;;;-143.84;70.80;45111.91;4949994;29;20442;-67
2023/04/15 05:35:35;;;;;;;20.87;6.10;;;;;;;-143.84;70.81;45110.00;4950571;28;20873;-67
2023/04/15 05:38:02;;;;;;;12.40;6.53;;;;;;;-143.84;70.59;45092.88;4950704;28;20453;-67
2023/04/15 05:40:30;;;;;;;18.50;7.00;;;;;;;-143.84;70.96;45110.00;4950882;29;20438;-67
2023/04/15 05:42:57;;;;;;;19.23;7.00;;;;;;;-143.84;70.46;45079.53;4950644;28;20446;-67
2023/04/15 05:45:26;;;;;;;15.43;5.87;;;;;;;-143.84;71.03;45102.38;4950520;28;20502;-67
2023/04/15 05:47:53;;;;;;;13.80;8.00;;;;;;;-143.84;71.47;45125.22;4952896;28;20463;-67
2023/04/15 05:50:20;;;;;;;25.93;7.90;;;;;;;-143.84;71.08;45087.16;4954217;28;20525;-67
2023/04/15 05:52:48;;;;;;;36.00;13.23;;;;;;;-143.84;71.51;45075.72;4954158;28;20453;-67
2023/04/15 05:55:15;;;;;;;11.73;6.53;;;;;;;-143.84;71.51;45110.00;4954257;28;20513;-67
2023/04/15 05:57:42;;;;;;;22.33;10.17;;;;;;;-143.84;72.05;45094.78;4954092;28;20442;-67
2023/04/15 06:00:10;;;;;;;18.30;8.83;;;;;;;-143.84;72.37;45075.72;4953773;28;20440;-67
2023/04/15 06:02:39;;;;;;;16.60;6.83;;;;;;;-143.84;72.72;45104.28;4972171;28;20456;-67
2023/04/15 06:05:08;;;;;;;17.73;6.53;;;;;;;-143.84;73.20;45087.16;4973161;28;20456;-66
2023/04/15 06:07:36;;;;;;;9.73;6.57;;;;;;;-143.84;73.61;45102.38;4973133;28;20441;-67
2023/04/15 06:10:03;;;;;;;20.33;6.60;;;;;;;-143.84;73.91;45113.81;4973129;28;20438;-67
2023/04/15 06:12:30;;;;;;;17.50;6.53;;;;;;;-143.84;74.50;45071.91;4973270;28;20511;-67
2023/04/15 06:14:58;;;;;;;14.83;6.73;;;;;;;-143.84;74.80;45096.66;4972959;28;20445;-67
2023/04/15 06:17:25;;;;;;;17.20;8.80;;;;;;;-143.84;75.24;45068.13;4972260;28;20506;-67
2023/04/15 06:19:54;;;;;;;25.17;10.27;;;;;;;-143.84;75.93;45068.13;4973024;28;20503;-67
2023/04/15 06:22:22;;;;;;;20.23;9.30;;;;;;;-143.84;77.03;45058.59;4972676;28;20506;-67
2023/04/15 06:24:49;;;;;;;20.40;10.27;;;;;;;-143.84;78.34;45012.88;4972904;28;20529;-67
2023/04/15 06:27:16;;;;;;;21.55;11.05;;;;;;;-143.84;80.72;44856.75;4972569;28;20935;-67
2023/04/15 06:29:43;;;;;;;23.97;10.53;;;;;;;-143.84;82.13;44635.88;4972779;28;20263;-67
2023/04/15 06:32:11;;;;;;;21.60;11.87;;;;;;;-143.84;82.78;44430.28;4972628;28;20516;-67
2023/04/15 06:34:38;;;;;;;22.93;12.70;;;;;;;-143.84;83.61;44131.38;4972592;28;21149;-67
2023/04/15 06:37:08;;;;;;;23.13;12.80;;;;;;;-143.84;84.45;43986.72;4972276;28;20563;-68
2023/04/15 06:39:36;;;;;;;27.37;12.07;;;;;;;-143.84;84.99;43851.56;4972127;28;20467;-68
2023/04/15 06:42:03;;;;;;;19.87;11.67;;;;;;;-143.84;85.28;43840.13;4972059;28;20443;-67
2023/04/15 06:44:30;;;;;;;16.53;9.70;;;;;;;-143.84;85.41;43823.00;4972337;28;20442;-67
2023/04/15 06:46:57;;;;;;;22.40;11.23;;;;;;;-143.84;85.24;43807.78;4972508;28;20948;-67
2023/04/15 06:49:25;;;;;;;16.70;10.03;;;;;;;-143.84;85.85;43813.50;4972373;28;20445;-68
2023/04/15 06:51:52;;;;;;;20.67;10.70;;;;;;;-143.84;86.00;43802.06;4971875;28;20501;-67
2023/04/15 06:54:21;;;;;;;17.10;8.20;;;;;;;-143.84;85.78;43773.53;4980987;28;20450;-68
2023/04/15 06:56:48;;;;;;;20.03;9.13;;;;;;;-143.84;85.56;43777.31;4981277;28;20479;-68
2023/04/15 06:59:15;;;;;;;17.60;8.03;;;;;;;-143.84;85.43;43834.44;4978982;28;20449;-68
2023/04/15 07:01:43;;;;;;;18.00;6.50;;;;;;;-143.84;85.13;43855.38;4988406;28;20507;-68
2023/04/15 07:04:11;;;;;;;13.23;5.05;;;;;;;-143.84;84.08;44038.09;4974626;28;20442;-68
2023/04/15 07:06:38;;;;;;;12.60;6.10;;;;;;;-143.84;82.63;44449.31;4971884;28;20227;-68
2023/04/15 07:09:05;;;;;;;8.10;4.10;;;;;;;-143.84;81.73;44630.19;4971677;28;20442;-68
2023/04/15 07:11:34;;;;;;;12.50;4.53;;;;;;;-143.84;81.43;44687.28;4971886;28;20456;-70
2023/04/15 07:14:01;;;;;;;7.20;3.70;;;;;;;-143.84;80.17;44858.66;4971919;28;20452;-68
2023/04/15 07:16:28;;;;;;;6.93;3.23;;;;;;;-143.84;79.90;44885.31;4971502;28;21034;-68
2023/04/15 07:18:56;;;;;;;8.10;2.70;;;;;;;-143.84;77.99;45001.47;4971990;28;20449;-68
2023/04/15 07:21:24;;;;;;;6.83;2.93;;;;;;;-143.84;77.37;45009.09;4971904;28;20458;-68
2023/04/15 07:23:51;;;;;;;7.90;2.93;;;;;;;-143.84;77.59;44976.72;4971567;28;20441;-68
2023/04/15 07:26:18;;;;;;;8.57;4.13;;;;;;;-143.84;77.51;45005.28;4953181;28;20465;-68
2023/04/15 07:28:46;;;;;;;9.03;4.80;;;;;;;-143.84;78.10;44991.94;4952193;28;20501;-68
2023/04/15 07:31:15;;;;;;;14.13;4.37;;;;;;;-143.84;78.29;44955.75;4952358;28;20457;-68
2023/04/15 07:33:42;;;;;;;7.80;3.17;;;;;;;-143.84;77.19;45005.28;4952225;28;20479;-68
2023/04/15 07:36:09;;;;;;;6.60;2.33;;;;;;;-143.84;74.91;45081.44;4952145;28;20489;-68
2023/04/15 07:38:36;;;;;;;8.50;3.20;;;;;;;-143.84;74.97;45075.72;4952220;28;20517;-68
2023/04/15 07:41:04;;;;;;;8.33;3.03;;;;;;;-143.84;74.63;45060.50;4952207;29;20442;-68
2023/04/15 07:43:31;;;;;;;5.67;3.00;;;;;;;-143.84;74.21;45083.34;4951984;28;20529;-67
2023/04/15 07:46:02;;;;;;;6.87;3.60;;;;;;;-143.84;73.90;45058.59;4952018;29;20462;-68
2023/04/15 07:48:29;;;;;;;4.50;3.40;;;;;;;-143.84;73.64;45047.16;4951943;28;20447;-67
2023/04/15 07:50:56;;;;;;;8.97;3.87;;;;;;;-143.84;74.06;45077.63;4952173;29;20432;-67
2023/04/15 07:53:23;;;;;;;9.07;4.20;;;;;;;-143.84;73.74;45087.16;4951946;28;20493;-67
2023/04/15 07:55:51;;;;;;;6.60;4.50;;;;;;;-143.84;74.35;45052.88;4952574;28;20834;-67
2023/04/15 07:58:18;;;;;;;5.85;4.00;;;;;;;-143.84;73.60;45045.25;4951773;28;20541;-65
2023/04/15 08:00:45;;;;;;;7.53;3.27;;;;;;;-143.84;71.74;45056.69;4951736;28;20207;-68
2023/04/15 08:03:14;;;;;;;7.93;4.20;;;;;;;-143.84;68.55;45081.44;4951686;28;20819;-68
2023/04/15 08:05:41;;;;;;;10.57;4.63;;;;;;;-143.84;67.48;45098.56;4951808;28;20650;-69
2023/04/15 08:08:08;;;;;;;17.83;5.70;;;;;;;-143.84;68.20;45098.56;4951702;28;20498;-68
2023/04/15 08:10:35;;;;;;;11.20;4.82;;;;;;;-143.84;68.86;45079.53;4950798;28;20513;-68
2023/04/15 08:13:03;;;;;;;36.72;7.53;;;;;;;-143.84;68.89;45108.09;4951748;28;20200;-67
2023/04/15 08:15:31;;;;;;;14.20;4.53;;;;;;;-143.84;68.59;45090.97;4951799;28;20201;-67
2023/04/15 08:17:59;;;;;;;8.57;3.73;;;;;;;-143.84;70.00;45089.06;4967580;28;21041;-67
2023/04/15 08:20:28;;;;;;;31.03;7.77;;;;;;;-143.84;72.10;45066.22;4971289;28;20849;-76
2023/04/15 08:22:56;;;;;;;21.07;5.53;;;;;;;-143.84;68.95;45092.88;4970946;28;20447;-66
2023/04/15 08:25:23;;;;;;;7.87;4.60;;;;;;;-143.84;69.14;45079.53;4970845;28;20884;-69
2023/04/15 08:27:50;;;;;;;6.00;3.70;;;;;;;-143.84;68.73;45102.38;4970475;28;20465;-68
2023/04/15 08:30:18;;;;;;;5.47;3.03;;;;;;;-143.84;67.55;45108.09;4970318;28;20544;-67
2023/04/15 08:32:46;;;;;;;7.77;3.30;;;;;;;-143.84;68.87;45070.00;4969872;28;20530;-68
2023/04/15 08:35:14;;;;;;;5.50;3.20;;;;;;;-143.84;71.10;45089.06;4969521;28;20448;-69
2023/04/15 08:37:42;;;;;;;5.53;2.77;;;;;;;-143.84;68.94;45083.34;4969406;28;20843;-70
2023/04/15 08:40:11;;;;;;;8.90;2.53;;;;;;;-143.84;69.33;45079.53;4970022;28;20962;-71
2023/04/15 08:42:47;;;;;;;6.37;2.70;;;;;;;-143.84;67.99;45075.72;4969786;28;20508;-72
2023/04/15 08:45:14;;;;;;;4.30;2.58;;;;;;;-143.84;69.05;45110.00;4969882;28;20439;-71
2023/04/15 08:47:45;;;;;;;6.10;2.00;;;;;;;-143.84;68.96;45081.44;4969625;28;20201;-71
2023/04/15 08:50:14;;;;;;;2.57;2.10;;;;;;;-143.84;69.91;45081.44;4951077;28;20443;-72
2023/04/15 08:52:43;;;;;;;9.00;2.63;;;;;;;-143.84;71.20;45092.88;4950128;29;20453;-72
2023/04/15 08:55:12;;;;;;;6.77;2.90;;;;;;;-143.84;72.44;45058.59;4949430;28;20939;-71
2023/04/15 08:57:39;;;;;;;3.13;2.50;;;;;;;-143.84;73.03;45075.72;4949653;28;20475;-73
2023/04/15 09:00:08;;;;;;;5.10;2.43;;;;;;;-143.84;72.45;45068.13;4949832;28;20451;-72
2023/04/15 09:02:35;;;;;;;6.47;2.60;;;;;;;-143.84;73.33;45087.16;4949587;28;20469;-72
2023/04/15 09:05:05;;;;;;;6.23;2.63;;;;;;;-143.84;73.65;45071.91;4949529;28;20439;-69
2023/04/15 09:07:34;;;;;;;4.80;2.30;;;;;;;-143.84;73.57;45049.06;4949806;29;20448;-73
2023/04/15 09:10:04;;;;;;;4.63;2.73;;;;;;;-143.84;74.23;45056.69;4950883;28;20479;-73
2023/04/15 09:12:31;;;;;;;7.50;4.00;;;;;;;-143.84;75.23;45066.22;4950683;29;20506;-72
2023/04/15 09:14:59;;;;;;;3.57;2.77;;;;;;;-143.84;75.98;45068.13;4950665;29;20438;-73
2023/04/15 09:17:26;;;;;;;6.30;3.63;;;;;;;-143.84;76.23;45039.53;4950314;28;20490;-73
2023/04/15 09:20:08;;;;;;;6.20;3.30;;;;;;;-143.84;76.55;45020.50;4950625;28;20442;-73
2023/04/15 09:22:36;;;;;;;10.90;4.40;;;;;;;-143.84;77.47;44988.13;4952945;28;20529;-74
2023/04/15 09:25:26;;;;;;;7.03;3.58;;;;;;;-143.84;77.22;44991.94;4954535;28;20563;-72
2023/04/15 09:27:54;;;;;;;11.90;3.93;;;;;;;-143.84;76.32;45033.84;4954456;28;20559;-73
2023/04/15 09:30:27;;;;;;;7.70;3.93;;;;;;;-143.84;77.06;45016.69;4954432;29;20449;-74
2023/04/15 09:32:56;;;;;;;7.00;4.20;;;;;;;-143.84;75.16;45020.50;4954537;28;20450;-73
2023/04/15 09:35:25;;;;;;;7.03;3.80;;;;;;;-143.84;76.05;45026.22;4963311;28;20575;-73
2023/04/15 09:37:52;;;;;;;9.35;3.90;;;;;;;-143.84;75.67;45043.34;4973538;28;21004;-74
2023/04/15 09:40:33;;;;;;;8.27;4.10;;;;;;;-143.84;71.11;45087.16;4973588;28;20202;-73
2023/04/15 09:43:02;;;;;;;6.30;4.20;;;;;;;-143.84;71.13;45068.13;4973553;28;20457;-73
2023/04/15 09:45:29;;;;;;;9.40;3.50;;;;;;;-143.84;69.32;45077.63;4973407;28;20445;-72
2023/04/15 09:47:58;;;;;;;15.60;4.07;;;;;;;-143.84;70.32;45075.72;4973738;28;20470;-71
2023/04/15 09:50:28;;;;;;;4.30;3.47;;;;;;;-143.84;71.62;45087.16;4973556;28;20214;-73
2023/04/15 09:52:56;;;;;;;13.45;4.07;;;;;;;-143.84;69.39;45094.78;4973256;28;20454;-73
2023/04/15 09:55:23;;;;;;;8.53;3.30;;;;;;;-143.84;67.92;45083.34;4973247;28;20208;-72
2023/04/15 09:57:52;;;;;;;7.87;3.50;;;;;;;-143.84;68.22;45073.81;4973266;28;20485;-72
2023/04/15 10:00:19;;;;;;;9.97;3.90;;;;;;;-143.84;67.94;45087.16;4973415;28;20986;-73
2023/04/15 10:02:48;;;;;;;4.83;2.87;;;;;;;-143.84;66.80;45087.16;4971451;28;20454;-73
2023/04/15 10:05:16;;;;;;;6.35;2.97;;;;;;;-143.84;67.50;45077.63;4974190;28;20531;-73
2023/04/15 10:07:44;;;;;;;5.47;2.90;;;;;;;-143.84;67.33;45075.72;4973639;28;20213;-76
2023/04/15 10:10:12;;;;;;;9.90;3.60;;;;;;;-143.84;67.95;45075.72;4971994;28;20455;-73
2023/04/15 10:12:42;;;;;;;6.67;3.40;;;;;;;-143.84;67.80;45089.06;4971650;28;20454;-74
2023/04/15 10:15:15;;;;;;;3.23;2.63;;;;;;;-143.84;66.55;45110.00;4973982;28;20442;-73
2023/04/15 10:17:44;;;;;;;8.50;3.40;;;;;;;-143.84;66.46;45062.41;4972174;28;20481;-72
2023/04/15 10:20:13;;;;;;;4.27;3.27;;;;;;;-143.84;66.91;45056.69;4975595;28;20452;-72
2023/04/15 10:22:42;;;;;;;4.10;2.90;;;;;;;-143.84;67.47;45075.72;4973820;28;20971;-71
2023/04/15 10:25:10;;;;;;;5.90;2.97;;;;;;;-143.84;67.83;45075.72;4979739;28;20490;-74
2023/04/15 10:27:40;;;;;;;7.27;2.87;;;;;;;-143.84;67.30;45125.22;4984080;28;20449;-72
2023/04/15 10:30:11;;;;;;;13.63;3.23;;;;;;;-143.84;67.27;45056.69;4974749;28;20504;-73
2023/04/15 10:32:39;;;;;;;4.17;2.20;;;;;;;-143.84;68.65;45077.63;4984576;28;20503;-73
2023/04/15 10:35:08;;;;;;;7.37;2.30;;;;;;;-143.84;67.01;45085.25;4975502;28;20508;-70
2023/04/15 10:37:36;;;;;;;2.10;1.90;;;;;;;-143.84;66.92;45089.06;4976427;28;20560;-73
2023/04/15 10:40:26;;;;;;;14.10;3.10;;;;;;;-143.84;66.65;45083.34;4984935;28;20668;-74
2023/04/15 10:42:54;;;;;;;5.13;1.97;;;;;;;-143.84;66.63;45106.19;4970185;28;20456;-75
2023/04/15 10:45:22;;;;;;;5.07;2.20;;;;;;;-143.84;66.17;45092.88;4978890;28;20453;-74
2023/04/15 10:47:54;;;;;;;2.33;1.87;;;;;;;-143.84;64.68;45119.53;4977495;28;20504;-75
2023/04/15 10:50:22;;;;;;;2.33;1.53;;;;;;;-143.84;62.51;45083.34;4977631;28;20434;-74
2023/04/15 10:52:52;;;;;;;3.47;2.00;;;;;;;-143.84;62.99;45077.63;4973593;28;20469;-75
2023/04/15 10:55:24;;;;;;;6.30;2.40;;;;;;;-143.84;64.62;45024.31;4978466;28;20795;-73
2023/04/15 10:57:58;;;;;;;13.47;2.80;;;;;;;-143.84;61.40;45094.78;4982561;28;20559;-75
2023/04/15 11:00:29;;;;;;;4.43;1.90;;;;;;;-143.84;62.84;45085.25;4979633;28;20477;-72
2023/04/15 11:02:59;;;;;;;5.87;2.23;;;;;;;-143.84;59.78;45064.31;4970547;28;20450;-73
2023/04/15 11:05:58;;;;;;;6.03;2.30;;;;;;;-143.84;59.29;45083.34;4972804;28;20587;-76
2023/04/15 11:08:57;;;;;;;7.63;2.25;;;;;;;-143.84;57.52;45096.66;4974075;28;20439;-73
2023/04/15 11:12:05;;;;;;;5.85;2.28;;;;;;;-143.84;57.30;45087.16;4971479;28;20246;-72
2023/04/15 11:14:34;;;;;;;6.57;2.30;;;;;;;-143.84;55.67;45052.88;4969832;28;20306;-75
2023/04/15 11:17:04;;;;;;;2.57;1.97;;;;;;;-143.84;54.45;45060.50;4970961;28;20491;-71